createdAt,value
2019-02-26T00:00:49.647Z,9.77
2019-02-26T00:03:19.741Z,10.20
2019-02-26T00:05:51.787Z,9.77
2019-02-26T00:08:21.429Z,9.83
2019-02-26T00:10:50.244Z,9.80
2019-02-26T00:13:18.817Z,9.43
2019-02-26T00:15:48.428Z,10.43
2019-02-26T00:18:18.925Z,10.43
2019-02-26T00:20:47.512Z,8.83
2019-02-26T00:23:16.131Z,10.37
2019-02-26T00:25:44.836Z,9.83
2019-02-26T00:28:15.408Z,9.60
2019-02-26T00:30:43.697Z,9.90
2019-02-26T00:33:12.244Z,10.10
2019-02-26T00:35:41.611Z,9.23
2019-02-26T00:38:13.268Z,9.17
2019-02-26T00:40:43.220Z,9.90
2019-02-26T00:43:11.854Z,9.77
2019-02-26T00:45:40.309Z,9.53
2019-02-26T00:48:08.823Z,9.37
2019-02-26T00:50:39.629Z,9.60
2019-02-26T00:53:07.729Z,9.83
2019-02-26T00:55:37.980Z,8.67
2019-02-26T00:58:08.405Z,9.63
2019-02-26T01:00:36.941Z,10.00
2019-02-26T01:03:06.098Z,8.43
2019-02-26T01:05:36.255Z,8.83
2019-02-26T01:08:09.970Z,8.57
2019-02-26T01:10:38.794Z,9.07
2019-02-26T01:13:07.295Z,9.50
2019-02-26T01:15:36.094Z,9.10
2019-02-26T01:18:05.621Z,9.47
2019-02-26T01:20:34.483Z,8.90
2019-02-26T01:23:03.094Z,8.27
2019-02-26T01:25:31.746Z,8.07
2019-02-26T01:28:00.578Z,7.90
2019-02-26T01:30:31.300Z,8.47
2019-02-26T01:33:00.569Z,7.77
2019-02-26T01:35:30.805Z,8.53
2019-02-26T01:38:00.584Z,8.47
2019-02-26T01:40:29.328Z,8.37
2019-02-26T01:43:00.462Z,8.37
2019-02-26T01:45:30.484Z,7.70
2019-02-26T01:47:58.414Z,8.63
2019-02-26T01:50:28.433Z,8.33
2019-02-26T01:52:59.163Z,8.60
2019-02-26T01:55:27.751Z,8.43
2019-02-26T01:57:58.547Z,8.63
2019-02-26T02:00:26.885Z,8.50
2019-02-26T02:02:55.725Z,7.70
2019-02-26T02:05:26.665Z,8.50
2019-02-26T02:07:55.985Z,7.63
2019-02-26T02:10:24.613Z,7.63
2019-02-26T02:12:55.245Z,7.87
2019-02-26T02:15:23.903Z,7.90
2019-02-26T02:17:54.848Z,7.83
2019-02-26T02:20:23.171Z,7.73
2019-02-26T02:22:51.755Z,7.13
2019-02-26T02:25:20.379Z,8.70
2019-02-26T02:27:51.882Z,7.53
2019-02-26T02:30:26.617Z,7.27
2019-02-26T02:32:53.739Z,7.23
2019-02-26T02:35:20.102Z,7.43
2019-02-26T02:37:50.997Z,7.10
2019-02-26T02:40:19.075Z,7.40
2019-02-26T02:42:49.129Z,7.07
2019-02-26T02:45:21.031Z,7.50
2019-02-26T02:47:48.404Z,7.57
2019-02-26T02:50:18.282Z,7.00
2019-02-26T02:52:47.165Z,6.80
2019-02-26T02:55:19.105Z,6.97
2019-02-26T02:57:49.137Z,7.13
2019-02-26T03:00:17.211Z,7.50
2019-02-26T03:02:49.747Z,6.90
2019-02-26T03:05:16.229Z,7.33
2019-02-26T03:07:48.186Z,6.73
2019-02-26T03:10:15.626Z,7.17
2019-02-26T03:12:51.258Z,7.47
2019-02-26T03:15:15.737Z,7.13
2019-02-26T03:17:44.774Z,6.30
2019-02-26T03:20:14.421Z,6.07
2019-02-26T03:22:47.715Z,6.70
2019-02-26T03:25:17.768Z,6.70
2019-02-26T03:27:45.839Z,6.17
2019-02-26T03:30:32.115Z,6.53
2019-02-26T03:32:58.419Z,6.80
2019-02-26T03:35:24.109Z,6.47
2019-02-26T03:37:56.630Z,6.60
2019-02-26T03:40:24.948Z,5.90
2019-02-26T03:42:53.529Z,6.27
2019-02-26T03:45:24.865Z,6.40
2019-02-26T03:47:55.446Z,6.00
2019-02-26T03:50:26.333Z,6.30
2019-02-26T03:52:53.100Z,6.37
2019-02-26T03:55:21.820Z,5.53
2019-02-26T03:57:53.568Z,6.27
2019-02-26T04:00:20.933Z,6.07
2019-02-26T04:02:51.850Z,5.83
2019-02-26T04:05:19.925Z,6.40
2019-02-26T04:07:51.756Z,6.03
2019-02-26T04:10:18.926Z,5.70
2019-02-26T04:12:48.940Z,6.10
2019-02-26T04:15:24.262Z,5.90
2019-02-26T04:17:51.329Z,5.77
2019-02-26T04:20:19.961Z,5.67
2019-02-26T04:22:49.915Z,6.67
2019-02-26T04:25:48.580Z,5.93
2019-02-26T04:28:33.042Z,5.83
2019-02-26T04:31:02.918Z,5.87
2019-02-26T04:33:43.752Z,6.27
2019-02-26T04:36:27.572Z,6.53
2019-02-26T04:39:13.656Z,6.77
2019-02-26T04:42:11.210Z,6.23
2019-02-26T04:45:08.907Z,5.73
2019-02-26T04:47:57.606Z,6.43
2019-02-26T04:50:28.621Z,6.40
2019-02-26T04:52:59.131Z,6.50
2019-02-26T04:55:28.984Z,6.43
2019-02-26T04:57:57.688Z,6.97
2019-02-26T05:00:27.741Z,6.37
2019-02-26T05:02:56.554Z,6.43
2019-02-26T05:05:25.918Z,6.33
2019-02-26T05:07:55.546Z,6.23
2019-02-26T05:10:26.470Z,6.50
2019-02-26T05:12:57.237Z,6.30
2019-02-26T05:15:26.516Z,6.20
2019-02-26T05:17:55.022Z,5.93
2019-02-26T05:20:23.639Z,6.80
2019-02-26T05:22:57.673Z,6.23
2019-02-26T05:25:25.423Z,6.73
2019-02-26T05:27:53.973Z,6.20
2019-02-26T05:30:22.768Z,6.20
2019-02-26T05:32:54.097Z,6.67
2019-02-26T05:35:23.380Z,6.17
2019-02-26T05:37:52.090Z,6.07
2019-02-26T05:40:22.268Z,6.53
2019-02-26T05:42:50.980Z,6.97
2019-02-26T05:45:21.475Z,6.47
2019-02-26T05:47:51.323Z,7.00
2019-02-26T05:50:22.824Z,6.67
2019-02-26T05:52:57.531Z,5.90
2019-02-26T05:55:23.698Z,7.33
2019-02-26T05:57:52.237Z,8.17
2019-02-26T06:00:24.877Z,7.63
2019-02-26T06:02:51.514Z,7.50
2019-02-26T06:05:22.541Z,7.77
2019-02-26T06:07:55.282Z,6.80
2019-02-26T06:10:25.169Z,6.90
2019-02-26T06:12:54.403Z,7.47
2019-02-26T06:15:25.695Z,7.43
2019-02-26T06:17:55.977Z,6.87
2019-02-26T06:20:28.091Z,7.40
2019-02-26T06:22:55.233Z,6.77
2019-02-26T06:25:25.788Z,7.50
2019-02-26T06:27:54.308Z,7.00
2019-02-26T06:30:23.096Z,7.47
2019-02-26T06:32:51.734Z,7.67
2019-02-26T06:35:20.348Z,7.87
2019-02-26T06:37:49.042Z,9.20
2019-02-26T06:40:17.857Z,8.70
2019-02-26T06:42:46.593Z,8.40
2019-02-26T06:45:16.650Z,8.87
2019-02-26T06:47:48.408Z,7.90
2019-02-26T06:50:18.725Z,7.83
2019-02-26T06:52:47.644Z,6.93
2019-02-26T06:55:16.782Z,6.93
2019-02-26T06:57:47.240Z,7.13
2019-02-26T07:00:21.790Z,6.17
2019-02-26T07:02:49.451Z,5.90
2019-02-26T07:05:18.017Z,5.97
2019-02-26T07:07:46.717Z,6.93
2019-02-26T07:10:18.436Z,5.63
2019-02-26T07:12:48.141Z,6.00
2019-02-26T07:15:16.457Z,5.90
2019-02-26T07:17:45.880Z,6.50
2019-02-26T07:20:15.012Z,10.67
2019-02-26T07:22:44.674Z,8.17
2019-02-26T07:25:17.963Z,5.80
2019-02-26T07:27:44.325Z,5.20
2019-02-26T07:30:13.060Z,5.83
2019-02-26T07:32:45.105Z,5.20
2019-02-26T07:35:16.022Z,6.37
2019-02-26T07:37:45.362Z,6.73
2019-02-26T07:40:16.076Z,7.00
2019-02-26T07:42:46.719Z,6.37
2019-02-26T07:45:15.473Z,5.87
2019-02-26T07:47:45.309Z,6.37
2019-02-26T07:50:14.972Z,7.77
2019-02-26T07:52:44.394Z,7.17
2019-02-26T07:55:15.373Z,7.37
2019-02-26T07:57:45.537Z,6.37
2019-02-26T08:00:17.524Z,6.33
2019-02-26T08:02:46.116Z,6.67
2019-02-26T08:05:16.998Z,6.47
2019-02-26T08:07:46.655Z,6.73
2019-02-26T08:10:19.282Z,5.97
2019-02-26T08:12:47.566Z,6.17
2019-02-26T08:15:16.251Z,6.50
2019-02-26T08:17:47.814Z,6.10
2019-02-26T08:20:15.481Z,6.83
2019-02-26T08:22:44.103Z,6.13
2019-02-26T08:25:13.614Z,6.43
2019-02-26T08:27:42.301Z,6.43
2019-02-26T08:30:18.798Z,6.43
2019-02-26T08:32:48.755Z,6.53
2019-02-26T08:35:18.794Z,7.67
2019-02-26T08:37:46.585Z,7.57
2019-02-26T08:40:15.897Z,7.37
2019-02-26T08:42:44.524Z,7.03
2019-02-26T08:45:17.583Z,8.27
2019-02-26T08:47:45.660Z,6.57
2019-02-26T08:50:15.028Z,6.20
2019-02-26T08:52:46.790Z,6.27
2019-02-26T08:55:30.928Z,6.20
2019-02-26T08:57:47.116Z,7.17
2019-02-26T09:00:20.520Z,6.63
2019-02-26T09:02:53.536Z,7.20
2019-02-26T09:05:19.604Z,7.17
2019-02-26T09:07:50.374Z,6.13
2019-02-26T09:10:21.284Z,6.57
2019-02-26T09:12:51.559Z,7.33
2019-02-26T09:15:20.006Z,6.63
2019-02-26T09:17:48.603Z,6.87
2019-02-26T09:20:21.735Z,5.87
2019-02-26T09:22:52.982Z,5.47
2019-02-26T09:25:23.439Z,5.70
2019-02-26T09:27:50.858Z,5.40
2019-02-26T09:30:20.053Z,5.20
2019-02-26T09:32:48.709Z,5.30
2019-02-26T09:35:19.964Z,4.90
2019-02-26T09:37:50.751Z,4.50
2019-02-26T09:40:23.675Z,4.60
2019-02-26T09:42:52.306Z,5.50
2019-02-26T09:45:28.631Z,5.13
2019-02-26T09:47:57.886Z,4.67
2019-02-26T09:50:26.056Z,4.63
2019-02-26T09:52:56.500Z,4.77
2019-02-26T09:55:25.067Z,4.97
2019-02-26T09:57:53.722Z,4.37
2019-02-26T10:00:26.039Z,4.00
2019-02-26T10:02:53.336Z,3.70
2019-02-26T10:05:22.043Z,4.20
2019-02-26T10:07:53.618Z,3.63
2019-02-26T10:10:25.308Z,3.67
2019-02-26T10:12:55.885Z,4.13
2019-02-26T10:15:23.805Z,4.27
2019-02-26T10:17:52.349Z,4.90
2019-02-26T10:20:24.880Z,5.50
2019-02-26T10:22:55.030Z,4.97
2019-02-26T10:25:23.887Z,5.03
2019-02-26T10:27:53.453Z,5.90
2019-02-26T10:30:23.459Z,6.20
2019-02-26T10:32:52.642Z,5.43
2019-02-26T10:35:32.353Z,4.57
2019-02-26T10:37:56.855Z,5.00
2019-02-26T10:40:34.600Z,5.13
2019-02-26T10:42:55.683Z,5.03
2019-02-26T10:45:27.425Z,5.13
2019-02-26T10:47:56.923Z,4.23
2019-02-26T10:50:31.368Z,4.40
2019-02-26T10:53:05.709Z,4.37
2019-02-26T10:55:35.314Z,4.37
2019-02-26T10:57:59.554Z,4.70
2019-02-26T11:00:33.888Z,4.90
2019-02-26T11:03:00.802Z,4.97
2019-02-26T11:05:29.538Z,4.70
2019-02-26T11:08:01.485Z,4.43
2019-02-26T11:10:28.617Z,4.50
2019-02-26T11:12:59.610Z,4.60
2019-02-26T11:15:30.231Z,4.30
2019-02-26T11:17:57.654Z,3.67
2019-02-26T11:20:28.261Z,4.07
2019-02-26T11:22:56.658Z,4.03
2019-02-26T11:25:27.532Z,4.50
2019-02-26T11:27:55.642Z,4.33
2019-02-26T11:30:30.292Z,3.93
2019-02-26T11:33:02.205Z,4.47
2019-02-26T11:35:28.006Z,4.70
2019-02-26T11:37:57.771Z,4.83
2019-02-26T11:40:30.215Z,5.20
2019-02-26T11:42:59.946Z,4.25
2019-02-26T11:45:28.228Z,3.87
2019-02-26T11:47:58.060Z,4.53
2019-02-26T11:50:28.430Z,4.40
2019-02-26T11:52:57.532Z,5.17
2019-02-26T11:55:29.049Z,5.12
2019-02-26T11:57:56.616Z,4.35
2019-02-26T12:00:39.382Z,5.70
2019-02-26T12:03:15.153Z,4.47
2019-02-26T12:05:43.818Z,4.20
2019-02-26T12:08:16.353Z,3.95
2019-02-26T12:10:42.804Z,3.08
2019-02-26T12:13:11.549Z,4.50
2019-02-26T12:15:42.727Z,4.40
2019-02-26T12:18:12.668Z,4.60
2019-02-26T12:20:43.043Z,4.60
2019-02-26T12:23:13.352Z,4.27
2019-02-26T12:25:41.469Z,3.90
2019-02-26T12:28:11.605Z,4.07
2019-02-26T12:30:43.807Z,3.80
2019-02-26T12:33:12.345Z,3.73
2019-02-26T12:35:43.518Z,3.70
2019-02-26T12:38:18.120Z,4.00
2019-02-26T12:40:44.662Z,3.60
2019-02-26T12:43:15.623Z,3.33
2019-02-26T12:45:42.372Z,3.70
2019-02-26T12:48:14.250Z,3.70
2019-02-26T12:50:41.193Z,3.73
2019-02-26T12:53:12.731Z,3.90
2019-02-26T12:55:42.318Z,3.50
2019-02-26T12:58:11.154Z,3.60
2019-02-26T13:00:41.942Z,3.63
2019-02-26T13:03:12.590Z,3.57
2019-02-26T13:05:42.392Z,3.70
2019-02-26T13:08:13.438Z,3.80
2019-02-26T13:10:43.482Z,3.37
2019-02-26T13:13:12.106Z,2.97
2019-02-26T13:15:40.799Z,3.17
2019-02-26T13:18:09.485Z,3.20
2019-02-26T13:20:38.126Z,2.60
2019-02-26T13:23:17.054Z,2.60
2019-02-26T13:25:37.042Z,2.77
2019-02-26T13:28:05.735Z,2.90
2019-02-26T13:30:34.373Z,3.30
2019-02-26T13:33:05.158Z,2.90
2019-02-26T13:35:33.471Z,3.33
2019-02-26T13:38:05.451Z,3.43
2019-02-26T13:40:38.485Z,2.90
2019-02-26T13:45:34.604Z,3.10
2019-02-26T13:48:03.407Z,2.87
2019-02-26T13:50:35.897Z,3.00
2019-02-26T13:53:04.942Z,2.50
2019-02-26T13:55:33.630Z,2.20
2019-02-26T13:58:11.394Z,2.87
2019-02-26T14:00:32.610Z,1.90
2019-02-26T14:03:01.353Z,1.80
2019-02-26T14:05:37.987Z,1.90
2019-02-26T14:08:00.912Z,2.20
2019-02-26T14:10:29.558Z,2.67
2019-02-26T14:12:58.273Z,2.23
2019-02-26T14:15:28.947Z,2.00
2019-02-26T14:17:57.637Z,2.37
2019-02-26T14:20:26.189Z,2.30
2019-02-26T14:22:54.758Z,2.50
2019-02-26T14:25:23.479Z,2.30
2019-02-26T14:27:52.093Z,2.70
2019-02-26T14:30:22.767Z,2.57
2019-02-26T14:32:51.461Z,2.13
2019-02-26T14:35:20.217Z,1.97
2019-02-26T14:37:48.902Z,2.17
2019-02-26T14:40:19.819Z,2.27
2019-02-26T14:42:48.953Z,2.23
2019-02-26T14:45:22.016Z,2.83
2019-02-26T14:47:50.711Z,3.17
2019-02-26T14:50:20.512Z,3.60
2019-02-26T14:52:49.143Z,3.10
2019-02-26T14:55:17.866Z,3.10
2019-02-26T14:57:46.668Z,3.10
2019-02-26T15:00:26.476Z,3.20
2019-02-26T15:02:55.335Z,3.53
2019-02-26T15:05:24.005Z,3.40
2019-02-26T15:07:52.705Z,3.77
2019-02-26T15:10:21.391Z,3.20
2019-02-26T15:12:50.036Z,3.70
2019-02-26T15:15:19.263Z,4.00
2019-02-26T15:17:47.990Z,4.27
2019-02-26T15:20:18.947Z,4.53
2019-02-26T15:22:47.531Z,4.37
2019-02-26T15:25:24.323Z,4.30
2019-02-26T15:27:53.002Z,5.20
2019-02-26T15:30:22.526Z,5.03
2019-02-26T15:32:51.246Z,4.97
2019-02-26T15:35:19.958Z,4.90
2019-02-26T15:37:48.645Z,4.63
2019-02-26T15:40:20.810Z,4.60
2019-02-26T15:42:52.423Z,4.90
2019-02-26T15:45:24.277Z,5.23
2019-02-26T15:47:53.190Z,4.93
2019-02-26T15:50:22.306Z,4.70
2019-02-26T15:52:52.977Z,5.00
2019-02-26T15:55:25.927Z,4.40
2019-02-26T15:57:55.574Z,4.90
2019-02-26T16:00:24.960Z,4.37
2019-02-26T16:02:59.020Z,4.40
2019-02-26T16:05:27.405Z,4.43
2019-02-26T16:07:56.047Z,4.13
2019-02-26T16:10:24.764Z,5.10
2019-02-26T16:12:53.364Z,4.90
2019-02-26T16:15:21.989Z,4.43
2019-02-26T16:17:50.637Z,4.37
2019-02-26T16:20:22.402Z,4.20
2019-02-26T16:22:52.651Z,3.90
2019-02-26T16:25:21.332Z,3.97
2019-02-26T16:27:51.704Z,4.13
2019-02-26T16:30:25.120Z,4.07
2019-02-26T16:32:53.991Z,4.57
2019-02-26T16:35:24.900Z,3.80
2019-02-26T16:37:53.018Z,3.87
2019-02-26T16:40:22.232Z,4.30
2019-02-26T16:42:53.006Z,3.90
2019-02-26T16:45:34.313Z,3.90
2019-02-26T16:47:59.626Z,18.77
2019-02-26T16:50:30.373Z,12.50
2019-02-26T16:53:00.504Z,6.20
2019-02-26T16:55:40.567Z,5.80
2019-02-26T16:58:09.218Z,4.50
2019-02-26T17:00:37.958Z,4.57
2019-02-26T17:03:06.694Z,4.60
2019-02-26T17:05:35.366Z,4.90
2019-02-26T17:08:04.260Z,4.57
2019-02-26T17:10:33.079Z,4.60
2019-02-26T17:13:03.025Z,4.83
2019-02-26T17:15:32.953Z,4.60
2019-02-26T17:18:01.689Z,4.63
2019-02-26T17:20:30.485Z,4.80
2019-02-26T17:22:59.382Z,4.50
2019-02-26T17:25:29.046Z,4.80
2019-02-26T17:27:58.052Z,4.93
2019-02-26T17:30:29.570Z,4.80
2019-02-26T17:32:58.345Z,6.27
2019-02-26T17:35:29.559Z,11.40
2019-02-26T17:38:03.430Z,12.33
2019-02-26T17:40:33.911Z,7.67
2019-02-26T17:43:02.477Z,5.53
2019-02-26T17:45:34.955Z,6.03
2019-02-26T17:48:05.940Z,6.03
2019-02-26T17:50:46.573Z,5.87
2019-02-26T17:53:20.816Z,5.77
2019-02-26T17:55:49.620Z,5.53
2019-02-26T17:58:18.420Z,5.43
2019-02-26T18:00:48.926Z,5.43
2019-02-26T18:03:18.469Z,6.23
2019-02-26T18:05:51.237Z,5.70
2019-02-26T18:08:18.988Z,5.30
2019-02-26T18:10:48.265Z,6.50
2019-02-26T18:13:20.487Z,6.03
2019-02-26T18:15:47.300Z,5.77
2019-02-26T18:18:16.081Z,5.37
2019-02-26T18:20:48.177Z,6.23
2019-02-26T18:23:16.875Z,6.30
2019-02-26T18:25:46.915Z,5.73
2019-02-26T18:28:15.558Z,6.20
2019-02-26T18:30:44.464Z,6.30
2019-02-26T18:33:13.070Z,6.20
2019-02-26T18:35:41.698Z,6.23
2019-02-26T18:38:10.244Z,6.40
2019-02-26T18:40:40.583Z,6.23
2019-02-26T18:46:00.761Z,6.47
2019-02-26T18:48:28.986Z,6.63
2019-02-26T18:50:59.678Z,6.60
2019-02-26T18:53:28.229Z,6.80
2019-02-26T18:55:56.871Z,7.40
2019-02-26T18:58:25.771Z,7.90
2019-02-26T19:00:58.351Z,7.90
2019-02-26T19:03:25.006Z,7.70
2019-02-26T19:05:54.677Z,8.30
2019-02-26T19:08:23.643Z,7.27
2019-02-26T19:10:53.397Z,7.57
2019-02-26T19:13:22.674Z,7.90
2019-02-26T19:15:51.419Z,8.00
2019-02-26T19:18:19.972Z,7.73
2019-02-26T19:20:49.136Z,7.83
2019-02-26T19:23:18.244Z,7.80
2019-02-26T19:25:46.802Z,7.87
2019-02-26T19:28:15.424Z,8.27
2019-02-26T19:30:43.979Z,8.80
2019-02-26T19:33:12.554Z,8.50
2019-02-26T19:35:41.105Z,8.27
2019-02-26T19:38:09.747Z,8.50
2019-02-26T19:40:53.410Z,8.73
2019-02-26T19:43:23.743Z,8.90
2019-02-26T19:45:54.241Z,8.73
2019-02-26T19:48:24.901Z,9.40
2019-02-26T19:50:53.939Z,9.97
2019-02-26T19:53:22.592Z,13.60
2019-02-26T19:55:53.095Z,13.43
2019-02-26T19:58:22.074Z,16.03
2019-02-26T20:00:52.892Z,10.90
2019-02-26T20:03:22.188Z,10.97
2019-02-26T20:05:50.755Z,11.67
2019-02-26T20:08:19.335Z,11.10
2019-02-26T20:10:49.966Z,9.60
2019-02-26T20:13:19.132Z,9.43
2019-02-26T20:15:47.743Z,8.57
2019-02-26T20:18:20.680Z,9.43
2019-02-26T20:20:46.804Z,8.60
2019-02-26T20:23:15.504Z,8.23
2019-02-26T20:25:44.297Z,8.87
2019-02-26T20:28:13.059Z,9.03
2019-02-26T20:30:41.636Z,8.70
2019-02-26T20:33:10.409Z,8.43
2019-02-26T20:35:38.968Z,9.07
2019-02-26T20:38:07.729Z,8.97
2019-02-26T20:40:36.309Z,8.73
2019-02-26T20:43:05.416Z,9.17
2019-02-26T20:45:34.045Z,8.20
2019-02-26T20:48:04.334Z,7.17
2019-02-26T20:50:33.051Z,8.10
2019-02-26T20:53:05.641Z,7.13
2019-02-26T20:55:34.842Z,7.43
2019-02-26T20:58:05.103Z,8.13
2019-02-26T21:00:42.177Z,9.73
2019-02-26T21:03:08.073Z,9.37
2019-02-26T21:05:41.841Z,10.00
2019-02-26T21:08:10.038Z,9.20
2019-02-26T21:10:39.750Z,9.63
2019-02-26T21:13:08.523Z,9.03
2019-02-26T21:15:39.371Z,8.13
2019-02-26T21:18:09.517Z,6.97
2019-02-26T21:20:41.133Z,7.37
2019-02-26T21:23:10.810Z,7.60
2019-02-26T21:25:44.017Z,6.93
2019-02-26T21:28:12.289Z,7.40
2019-02-26T21:30:45.810Z,7.50
2019-02-26T21:33:16.419Z,6.77
2019-02-26T21:35:45.069Z,7.00
2019-02-26T21:38:14.003Z,6.60
2019-02-26T21:40:43.635Z,6.43
2019-02-26T21:43:13.305Z,6.37
2019-02-26T21:45:49.142Z,5.67
2019-02-26T21:48:17.395Z,6.70
2019-02-26T21:50:46.313Z,6.77
2019-02-26T21:53:17.799Z,6.90
2019-02-26T21:55:48.090Z,6.73
2019-02-26T21:58:16.877Z,7.43
2019-02-26T22:00:45.665Z,7.53
2019-02-26T22:03:14.611Z,7.83
2019-02-26T22:05:47.851Z,7.53
2019-02-26T22:08:17.175Z,6.83
2019-02-26T22:10:53.436Z,7.03
2019-02-26T22:13:24.189Z,6.93
2019-02-26T22:15:58.301Z,7.30
2019-02-26T22:18:31.206Z,7.17
2019-02-26T22:21:00.886Z,5.83
2019-02-26T22:23:29.513Z,5.90
2019-02-26T22:25:59.423Z,5.50
2019-02-26T22:28:28.706Z,5.43
2019-02-26T22:30:57.259Z,5.93
2019-02-26T22:33:26.026Z,5.70
2019-02-26T22:35:56.992Z,5.87
2019-02-26T22:38:25.252Z,6.97
2019-02-26T22:40:53.920Z,8.30
2019-02-26T22:43:24.204Z,6.83
2019-02-26T22:46:00.790Z,6.73
2019-02-26T22:48:32.141Z,6.10
2019-02-26T22:51:06.481Z,5.67
2019-02-26T22:53:40.613Z,5.60
2019-02-26T22:56:09.920Z,4.80
2019-02-26T22:58:40.934Z,5.83
2019-02-26T23:01:17.294Z,5.27
2019-02-26T23:03:46.584Z,5.47
2019-02-26T23:06:15.545Z,5.67
2019-02-26T23:08:44.746Z,5.70
2019-02-26T23:11:15.919Z,5.17
2019-02-26T23:13:45.200Z,5.43
2019-02-26T23:16:17.934Z,5.10
2019-02-26T23:18:45.039Z,5.10
2019-02-26T23:21:15.738Z,5.00
2019-02-26T23:23:45.147Z,5.30
2019-02-26T23:26:13.787Z,4.70
2019-02-26T23:28:44.213Z,5.40
2019-02-26T23:31:12.887Z,5.17
2019-02-26T23:33:41.598Z,5.33
2019-02-26T23:36:10.252Z,5.30
2019-02-26T23:38:38.850Z,5.43
2019-02-26T23:41:15.418Z,5.40
2019-02-26T23:43:46.054Z,4.90
2019-02-26T23:46:19.067Z,5.37
2019-02-26T23:48:47.679Z,4.73
2019-02-26T23:51:21.148Z,5.07
2019-02-26T23:53:50.353Z,4.67
2019-02-26T23:56:21.377Z,4.57
2019-02-26T23:58:50.504Z,4.47
